Time;durP1;ratioP1;P1;durP2;ratioP2;P2;SDS_P1;SDS_P2;PMS_P1;PMS_P2;Temp;Humidity;BMP_temperature;BMP_pressure;BME280_temperature;BME280_humidity;BME280_pressure;Samples;Min_cycle;Max_cycle;Signal;HPM_P1;HPM_P2
2022/12/09 00:01:22;;;;;;;14.85;9.88;;;;;;;-0.19;100.00;100286.34;5014908;28;20213;-71
2022/12/09 00:04:03;;;;;;;15.85;8.80;;;;;;;-0.51;100.00;100293.91;5014980;28;20209;-71
2022/12/09 00:06:35;;;;;;;19.75;10.18;;;;;;;-0.58;100.00;100298.16;5003055;28;20253;-70
2022/12/09 00:09:08;;;;;;;17.70;10.35;;;;;;;-0.51;100.00;100302.72;5014709;28;20641;-72
2022/12/09 00:11:45;;;;;;;16.83;9.88;;;;;;;-0.46;100.00;100299.63;5014775;28;20589;-72
2022/12/09 00:14:18;;;;;;;16.25;10.27;;;;;;;-0.71;100.00;100303.75;5014627;28;20203;-71
2022/12/09 00:16:56;;;;;;;15.82;11.07;;;;;;;-0.80;100.00;100301.97;5014489;28;20228;-71
2022/12/09 00:19:33;;;;;;;21.45;9.95;;;1.20;99.90;;;-0.90;100.00;100303.81;5014191;28;20259;-72
2022/12/09 00:22:06;;;;;;;16.38;8.75;;;-0.40;99.90;;;-0.87;100.00;100306.16;5025856;28;20243;-72
2022/12/09 00:24:42;;;;;;;14.05;8.15;;;-0.50;99.90;;;-0.78;100.00;100297.38;5026790;28;20586;-70
2022/12/09 00:27:15;;;;;;;17.05;10.18;;;;;;;-0.85;100.00;100296.25;5012042;28;20216;-71
2022/12/09 00:29:54;;;;;;;16.00;9.10;;;;;;;-0.66;100.00;100290.03;5014332;28;20201;-70
2022/12/09 00:32:55;;;;;;;14.80;8.65;;;;;;;-0.57;100.00;100299.81;5033319;28;20199;-70
2022/12/09 00:35:28;;;;;;;21.85;8.65;;;;;;;-0.76;100.00;100295.38;5026366;28;20222;-70
2022/12/09 00:38:00;;;;;;;15.90;10.65;;;;;;;-0.95;100.00;100298.94;5024839;28;20573;-72
2022/12/09 00:40:45;;;;;;;17.23;11.98;;;;;;;-1.13;100.00;100297.16;5015351;28;20198;-70
2022/12/09 00:43:22;;;;;;;16.05;11.02;;;;;;;-1.18;100.00;100299.38;5014082;28;20197;-71
2022/12/09 00:46:01;;;;;;;14.30;9.07;;;;;;;-1.12;100.00;100301.50;5014045;28;20216;-71
2022/12/09 00:48:40;;;;;;;17.33;9.73;;;;;;;-1.27;100.00;100306.38;5008843;28;20267;-72
2022/12/09 00:51:17;;;;;;;19.98;10.88;;;;;;;-1.28;100.00;100309.19;5015258;28;20166;-72
2022/12/09 00:53:52;;;;;;;13.63;8.40;;;;;;;-1.34;100.00;100316.72;5014006;28;20189;-72
2022/12/09 00:56:29;;;;;;;15.90;12.13;;;;;;;-1.04;100.00;100317.53;5013558;28;20213;-72
2022/12/09 00:59:05;;;;;;;19.42;8.73;;;;;;;-1.17;100.00;100317.00;5013734;28;20198;-73
2022/12/09 01:01:45;;;;;;;14.85;8.57;;;;;;;-1.28;100.00;100325.09;5013554;28;20249;-71
2022/12/09 01:04:23;;;;;;;17.67;10.43;;;;;;;-1.13;100.00;100323.69;5020044;28;20193;-72
2022/12/09 01:07:03;;;;;;;22.60;11.65;;;;;;;-1.13;100.00;100329.00;5025220;28;20647;-72
2022/12/09 01:09:39;;;;;;;15.40;11.10;;;;;;;-1.04;100.00;100333.47;5014767;28;20194;-72
2022/12/09 01:12:15;;;;;;;16.77;11.63;;;;;;;-1.16;100.00;100331.97;4998946;28;20610;-72
2022/12/09 01:14:51;;;;;;;15.20;8.60;;;;;;;-1.24;100.00;100342.41;5013617;28;20209;-72
2022/12/09 01:17:26;;;;;;;14.27;9.25;;;;;;;-1.04;100.00;100344.09;5013305;28;20291;-71
2022/12/09 01:20:19;;;;;;;20.98;10.27;;;;;;;-1.01;100.00;100343.81;5013106;28;20202;-72
2022/12/09 01:22:55;;;;;;;11.52;8.10;;;;;;;-0.67;100.00;100341.50;5014321;28;20202;-72
2022/12/09 01:29:05;;;;;;;14.63;9.30;;;;;;;-0.26;100.00;100340.25;5012901;28;20205;-72
2022/12/09 01:31:48;;;;;;;14.90;8.77;;;;;;;-0.17;100.00;100328.75;5014328;28;20190;-71
2022/12/09 01:34:30;;;;;;;16.63;10.05;;;-0.40;99.90;;;0.06;100.00;100319.38;5013109;28;20202;-71
2022/12/09 01:38:06;;;;;;;20.08;8.70;;;0.10;99.90;;;0.09;100.00;100327.09;4935472;29;20230;-72
2022/12/09 01:40:42;;;;;;;14.00;8.95;;;0.20;99.90;;;0.15;100.00;100323.81;4953276;29;20220;-72
2022/12/09 01:43:20;;;;;;;14.70;9.98;;;0.30;99.90;;;0.24;100.00;100317.59;4953918;29;20250;-71
2022/12/09 01:45:57;;;;;;;17.67;10.80;;;0.40;99.90;;;0.22;100.00;100319.56;4953876;28;20230;-72
2022/12/09 01:48:42;;;;;;;18.08;10.35;;;0.40;99.90;;;0.47;100.00;100314.50;4938034;29;20734;-73
2022/12/09 01:51:32;;;;;;;23.27;10.95;;;;;;;0.53;100.00;100320.06;4952974;29;20210;-72
2022/12/09 01:54:11;;;;;;;19.75;13.30;;;;;;;0.42;100.00;100318.47;4936487;29;20200;-71
2022/12/09 01:56:46;;;;;;;18.23;10.98;;;;;;;0.50;100.00;100319.50;4939434;29;20235;-73
2022/12/09 01:59:19;;;;;;;20.75;12.38;;;;;;;0.48;100.00;100324.16;4944950;28;20674;-72
2022/12/09 02:01:55;;;;;;;16.40;10.80;;;;;;;0.53;100.00;100319.22;4983683;28;20213;-72
2022/12/09 02:04:29;;;;;;;26.23;13.63;;;;;;;0.59;100.00;100321.25;5009158;28;20727;-72
2022/12/09 02:07:09;;;;;;;18.63;12.23;;;;;;;0.66;100.00;100317.00;5028169;28;20228;-72
2022/12/09 02:09:51;;;;;;;20.85;12.75;;;;;;;0.61;100.00;100329.94;5013648;28;20198;-72
2022/12/09 02:12:51;;;;;;;16.33;9.50;;;;;;;0.59;100.00;100322.09;5013482;28;20561;-72
2022/12/09 02:15:25;;;;;;;25.38;10.50;;;;;;;0.36;100.00;100324.38;5012191;28;20272;-71
2022/12/09 02:18:03;;;;;;;15.90;10.68;;;;;;;0.51;100.00;100323.84;5006971;28;20217;-73
2022/12/09 02:20:39;;;;;;;27.17;13.82;;;;;;;0.63;100.00;100322.66;5013343;28;20296;-71
2022/12/09 02:23:18;;;;;;;17.33;10.00;;;;;;;0.46;100.00;100319.00;5012945;28;20208;-72
2022/12/09 02:25:59;;;;;;;16.42;9.52;;;;;;;0.61;100.00;100324.63;5011958;28;20227;-73
2022/12/09 02:28:56;;;;;;;16.33;10.73;;;;;;;0.56;100.00;100321.56;5012832;28;20674;-72
2022/12/09 02:32:03;;;;;;;29.23;13.23;;;;;;;0.75;100.00;100321.41;5014006;28;20609;-72
2022/12/09 02:34:47;;;;;;;17.08;11.25;;;;;;;0.61;100.00;100320.13;5027360;28;20193;-72
2022/12/09 02:37:29;;;;;;;24.23;12.82;;;;;;;0.73;100.00;100320.72;5034349;28;20218;-73
2022/12/09 02:40:09;;;;;;;22.55;10.77;;;;;;;0.75;100.00;100316.09;5013434;28;20490;-72
2022/12/09 02:42:47;;;;;;;17.35;10.60;;;;;;;0.78;100.00;100315.78;5008729;28;20298;-72
2022/12/09 02:45:29;;;;;;;23.60;10.52;;;;;;;0.73;100.00;100302.09;4992187;28;20625;-72
2022/12/09 02:48:09;;;;;;;19.02;11.50;;;;;;;0.89;100.00;100302.22;5018046;28;20229;-71
2022/12/09 02:50:53;;;;;;;17.52;11.20;;;;;;;0.89;100.00;100304.88;5022144;28;20247;-71
2022/12/09 02:53:31;;;;;;;24.17;12.35;;;;;;;0.89;100.00;100296.91;5015900;28;20289;-71
2022/12/09 02:56:26;;;;;;;21.60;11.63;;;;;;;0.98;100.00;100303.97;5017612;28;20216;-70
2022/12/09 02:59:06;;;;;;;19.20;12.05;;;;;;;1.13;100.00;100302.41;5016646;28;20256;-72
2022/12/09 03:01:47;;;;;;;22.02;12.45;;;;;;;1.04;100.00;100310.50;5018095;28;20208;-72
2022/12/09 03:04:21;;;;;;;21.20;11.10;;;;;;;1.14;100.00;100308.59;5002056;28;20216;-72
2022/12/09 03:07:14;;;;;;;19.88;12.40;;;;;;;1.01;100.00;100301.00;5017406;28;20218;-72
2022/12/09 03:09:53;;;;;;;19.75;10.23;;;;;;;0.82;100.00;100311.84;5017736;28;20206;-72
2022/12/09 03:12:32;;;;;;;14.38;9.10;;;;;;;0.99;100.00;100310.97;5015502;28;20194;-73
2022/12/09 03:15:08;;;;;;;20.17;11.60;;;;;;;0.96;100.00;100311.28;5021810;28;20204;-73
2022/12/09 03:17:43;;;;;;;21.20;11.45;;;;;;;0.79;100.00;100312.13;5142906;22;20285;-73
2022/12/09 03:20:16;;;;;;;22.00;13.48;;;;;;;0.74;100.00;100303.75;5053871;28;20268;-72
2022/12/09 03:22:50;;;;;;;15.43;10.02;;;;;;;0.79;100.00;100307.66;5056711;28;20617;-72
2022/12/09 03:26:22;;;;;;;22.60;11.15;;;;;;;0.88;100.00;100311.22;5056316;28;20678;-73
2022/12/09 03:28:55;;;;;;;16.33;10.65;;;;;;;0.89;100.00;100304.88;5036168;28;20204;-72
2022/12/09 03:31:29;;;;;;;18.90;9.80;;;;;;;0.93;100.00;100308.91;5035083;28;20232;-73
2022/12/09 03:34:04;;;;;;;17.67;9.38;;;;;;;0.92;100.00;100307.22;5036191;28;20185;-73
2022/12/09 03:36:38;;;;;;;19.58;11.68;;;;;;;1.03;100.00;100304.34;5030616;28;20244;-71
2022/12/09 03:39:14;;;;;;;20.77;11.80;;;;;;;0.96;100.00;100305.13;5035876;28;20190;-73
2022/12/09 03:41:48;;;;;;;15.10;9.25;;;;;;;0.94;100.00;100309.75;5036164;28;20272;-73
2022/12/09 03:44:23;;;;;;;16.27;9.10;;;;;;;0.99;100.00;100313.63;5035857;28;20199;-74
2022/12/09 03:46:53;;;;;;;15.65;9.88;;;;;;;1.19;100.00;100303.63;5035803;28;20205;-73
2022/12/09 03:49:22;;;;;;;18.83;9.43;;;;;;;1.11;100.00;100309.75;5035794;28;20193;-73
2022/12/09 03:51:57;;;;;;;13.65;9.90;;;;;;;1.07;100.00;100310.19;5036325;28;20232;-73
2022/12/09 03:54:32;;;;;;;16.23;10.07;;;;;;;1.08;100.00;100311.84;5035675;28;20190;-72
2022/12/09 03:57:02;;;;;;;14.80;9.00;;;;;;;1.07;100.00;100313.69;5043981;28;20216;-72
2022/12/09 03:59:34;;;;;;;16.60;9.90;;;;;;;0.94;100.00;100305.25;5037715;28;20205;-74
2022/12/09 04:02:05;;;;;;;15.32;9.32;;;;;;;1.06;100.00;100304.03;5035206;28;20190;-73
2022/12/09 04:08:09;;;;;;;15.77;10.10;;;;;;;1.10;100.00;100300.06;5035954;28;20195;-74
2022/12/09 04:10:40;;;;;;;18.13;12.20;;;;;;;1.30;100.00;100306.88;5036152;28;20280;-73
2022/12/09 04:13:09;;;;;;;17.95;9.20;;;;;;;1.28;100.00;100300.00;5035883;28;20252;-72
2022/12/09 04:15:38;;;;;;;15.63;9.65;;;;;;;1.09;100.00;100297.56;5036192;28;20208;-72
2022/12/09 04:18:07;;;;;;;15.43;9.15;;;;;;;1.09;100.00;100303.72;5029832;28;20241;-72
2022/12/09 04:20:37;;;;;;;18.52;11.30;;;;;;;1.13;100.00;100299.75;5036320;28;20236;-72
2022/12/09 04:23:06;;;;;;;22.13;12.43;;;;;;;1.13;100.00;100297.09;5036255;28;20216;-73
2022/12/09 04:25:37;;;;;;;15.07;9.30;;;;;;;1.22;100.00;100293.47;5035850;28;20646;-72
2022/12/09 04:28:10;;;;;;;17.00;9.27;;;;;;;1.24;100.00;100301.31;5036100;28;20606;-74
2022/12/09 04:30:44;;;;;;;14.02;9.38;;;;;;;1.20;100.00;100292.81;5035914;28;20193;-73
2022/12/09 04:33:14;;;;;;;16.15;9.70;;;;;;;1.04;100.00;100289.19;5036104;28;20208;-72
2022/12/09 04:35:42;;;;;;;14.38;9.63;;;;;;;1.10;100.00;100300.06;5036288;28;20197;-72
2022/12/09 04:38:12;;;;;;;16.60;9.80;;;;;;;1.05;100.00;100296.19;5026028;28;20577;-73
2022/12/09 04:40:41;;;;;;;18.88;10.18;;;;;;;1.14;100.00;100290.75;5035537;28;20587;-73
2022/12/09 04:43:11;;;;;;;19.85;12.32;;;;;;;1.04;100.00;100302.50;5034521;28;20247;-73
2022/12/09 04:45:43;;;;;;;16.83;10.68;;;;;;;1.20;100.00;100287.47;5035282;28;20193;-71
2022/12/09 04:48:12;;;;;;;16.95;10.05;;;;;;;1.21;100.00;100293.66;5035063;28;20208;-73
2022/12/09 04:50:42;;;;;;;18.10;10.05;;;;;;;1.08;100.00;100301.19;5034659;28;20726;-73
2022/12/09 04:53:11;;;;;;;13.05;9.15;;;;;;;1.19;100.00;100308.94;5033567;28;20556;-72
2022/12/09 04:55:40;;;;;;;14.43;10.18;;;;;;;1.27;100.00;100306.34;5034761;28;20684;-73
2022/12/09 04:58:11;;;;;;;16.90;12.18;;;;;;;1.22;100.00;100304.13;5034453;28;20220;-72
2022/12/09 05:00:40;;;;;;;28.33;11.88;;;;;;;1.33;100.00;100305.72;5034528;28;20540;-72
2022/12/09 05:03:09;;;;;;;17.98;9.68;;;;;;;1.20;100.00;100303.47;5034497;28;20683;-73
2022/12/09 05:05:40;;;;;;;15.00;8.57;;;;;;;0.97;100.00;100299.63;5034461;28;20193;-73
2022/12/09 05:08:10;;;;;;;19.75;11.50;;;;;;;1.06;100.00;100304.03;5034380;28;20243;-73
2022/12/09 05:10:41;;;;;;;16.73;10.05;;;;;;;1.23;100.00;100297.81;5034480;28;20223;-74
2022/12/09 05:13:12;;;;;;;11.85;8.20;;;;;;;0.98;100.00;100295.13;5034121;28;20190;-73
2022/12/09 05:15:41;;;;;;;17.63;9.77;;;;;;;0.84;100.00;100300.03;5034192;28;20251;-73
2022/12/09 05:18:10;;;;;;;15.52;7.75;;;;;;;0.76;100.00;100301.78;5033959;28;20569;-72
2022/12/09 05:20:45;;;;;;;13.70;9.93;;;;;;;0.87;100.00;100293.56;5034206;28;20178;-74
2022/12/09 05:23:14;;;;;;;14.38;10.48;;;;;;;0.71;100.00;100298.75;5034224;28;20196;-73
2022/12/09 05:25:43;;;;;;;14.60;8.48;;;;;;;0.55;100.00;100299.44;5034163;28;20227;-73
2022/12/09 05:28:13;;;;;;;12.35;8.02;;;;;;;0.35;100.00;100297.91;5034362;28;20276;-73
2022/12/09 05:30:42;;;;;;;18.48;9.65;;;;;;;0.52;100.00;100296.25;5033843;28;20189;-73
2022/12/09 05:33:12;;;;;;;21.13;10.50;;;;;;;0.60;100.00;100291.00;5032703;28;20233;-72
2022/12/09 05:35:44;;;;;;;18.75;10.15;;;;;;;0.56;100.00;100301.13;5034049;28;20277;-73
2022/12/09 05:38:29;;;;;;;17.65;10.20;;;;;;;0.45;100.00;100298.69;5014067;28;20244;-73
2022/12/09 05:41:07;;;;;;;12.90;8.10;;;;;;;0.30;100.00;100301.03;5012778;28;20233;-73
2022/12/09 05:43:41;;;;;;;18.60;9.52;;;;;;;0.05;100.00;100309.72;5021449;28;20192;-73
2022/12/09 05:46:15;;;;;;;12.68;7.82;;;;;;;0.03;100.00;100309.03;5033430;28;20274;-73
2022/12/09 05:48:50;;;;;;;16.67;9.45;;;;;;;0.30;100.00;100317.00;5032787;28;20657;-73
2022/12/09 05:51:25;;;;;;;19.00;9.75;;;;;;;0.61;100.00;100308.66;5032140;28;20563;-73
2022/12/09 05:54:02;;;;;;;17.83;9.10;;;;;;;0.72;100.00;100313.75;5034073;28;20288;-72
2022/12/09 05:56:33;;;;;;;16.58;9.15;;;;;;;0.66;100.00;100311.69;5030326;28;20725;-71
2022/12/09 05:59:07;;;;;;;19.05;11.27;;;;;;;0.55;100.00;100303.94;5018648;28;20206;-72
2022/12/09 06:01:46;;;;;;;16.27;12.05;;;;;;;0.71;100.00;100309.41;5016069;28;20252;-72
2022/12/09 06:04:18;;;;;;;13.80;8.85;;;;;;;0.62;100.00;100310.31;5028236;28;20685;-72
2022/12/09 06:06:49;;;;;;;15.93;8.98;;;;;;;0.42;100.00;100313.13;5032223;28;20240;-72
2022/12/09 06:09:30;;;;;;;16.90;11.05;;;;;;;0.35;100.00;100309.38;5035586;28;20244;-72
2022/12/09 06:12:12;;;;;;;18.85;10.15;;;;;;;0.14;100.00;100305.34;5054096;28;20217;-73
2022/12/09 06:14:47;;;;;;;14.13;8.98;;;;;;;0.29;100.00;100310.00;5036568;28;20224;-72
2022/12/09 06:17:22;;;;;;;16.77;10.35;;;;;;;0.30;100.00;100303.69;5034504;28;20220;-73
2022/12/09 06:19:53;;;;;;;18.98;9.60;;;;;;;0.20;100.00;100302.91;5053126;28;20248;-71
2022/12/09 06:22:25;;;;;;;13.57;10.50;;;;;;;0.40;100.00;100312.44;5038795;28;20196;-73
2022/12/09 06:24:57;;;;;;;13.90;10.25;;;;;;;0.58;100.00;100309.78;5023877;28;20280;-73
2022/12/09 06:27:30;;;;;;;14.13;8.52;;;;;;;0.64;100.00;100303.00;5048591;28;20221;-72
2022/12/09 06:30:05;;;;;;;19.67;10.85;;;;;;;0.64;100.00;100308.34;5048929;28;20193;-73
2022/12/09 06:32:38;;;;;;;23.73;13.70;;;;;;;0.76;100.00;100309.78;5048877;28;20265;-71
2022/12/09 06:35:11;;;;;;;16.15;10.23;;;;;;;0.92;100.00;100317.09;5032207;28;20201;-72
2022/12/09 06:37:44;;;;;;;18.35;11.50;;;;;;;1.14;100.00;100322.75;5033738;28;20663;-72
2022/12/09 06:40:16;;;;;;;20.02;10.93;;;;;;;1.08;100.00;100320.69;5032959;28;20220;-73
2022/12/09 06:42:51;;;;;;;20.67;13.23;;;;;;;1.27;100.00;100327.66;5028386;28;20585;-72
2022/12/09 06:45:25;;;;;;;17.95;12.23;;;;;;;1.19;100.00;100320.44;5025871;28;20213;-72
2022/12/09 06:47:59;;;;;;;30.15;16.83;;;;;;;1.26;100.00;100325.97;5031817;28;20247;-72
2022/12/09 06:50:33;;;;;;;33.38;14.65;;;;;;;1.23;100.00;100332.47;5031266;28;20570;-72
2022/12/09 06:53:10;;;;;;;21.60;13.23;;;;;;;1.08;100.00;100331.34;5031798;28;20240;-71
2022/12/09 06:55:41;;;;;;;31.58;13.23;;;;;;;1.13;100.00;100345.06;5031292;28;20197;-71
2022/12/09 06:58:13;;;;;;;26.83;14.65;;;;;;;1.25;100.00;100327.00;5031493;28;20641;-71
2022/12/09 07:00:45;;;;;;;23.77;13.15;;;;;;;1.23;100.00;100337.81;5031383;28;20267;-71
2022/12/09 07:03:18;;;;;;;26.95;15.25;;;;;;;1.14;100.00;100330.75;5031973;28;20205;-73
2022/12/09 07:05:49;;;;;;;31.55;14.50;;;;;;;1.13;100.00;100339.72;5032694;28;20246;-71
2022/12/09 07:08:20;;;;;;;30.40;12.93;;;;;;;1.07;100.00;100337.66;5033693;28;20674;-72
2022/12/09 07:10:51;;;;;;;23.83;11.63;;;;;;;1.15;100.00;100331.59;5033374;28;20197;-72
2022/12/09 07:13:29;;;;;;;31.38;13.18;;;;;;;1.10;100.00;100337.38;5030927;28;20200;-72
2022/12/09 07:16:01;;;;;;;22.50;13.63;;;;;;;1.25;100.00;100335.00;5031062;28;20731;-72
2022/12/09 07:18:33;;;;;;;60.33;15.20;;;;;;;1.01;100.00;100340.97;5011300;28;20210;-71
2022/12/09 07:21:08;;;;;;;29.98;14.98;;;;;;;1.00;100.00;100339.28;5018909;28;20232;-72
2022/12/09 07:23:43;;;;;;;30.00;13.73;;;;;;;1.05;100.00;100336.16;5032027;28;20669;-72
2022/12/09 07:26:15;;;;;;;38.22;17.52;;;;;;;1.11;100.00;100333.72;5031194;28;20304;-71
2022/12/09 07:28:48;;;;;;;24.60;14.23;;;;;;;1.04;100.00;100335.31;5028889;28;20201;-72
2022/12/09 07:31:24;;;;;;;28.00;15.65;;;;;;;1.18;100.00;100334.75;5047793;28;20234;-72
2022/12/09 07:33:59;;;;;;;42.30;17.52;;;;;;;1.10;100.00;100334.72;5029659;28;20213;-72
2022/12/09 07:36:32;;;;;;;31.35;15.20;;;;;;;1.06;100.00;100340.50;5024426;28;20316;-72
2022/12/09 07:39:05;;;;;;;28.38;14.35;;;;;;;1.03;100.00;100338.97;5034967;28;20316;-71
2022/12/09 07:41:39;;;;;;;45.50;16.92;;;;;;;1.06;100.00;100351.16;5035480;28;20193;-71
2022/12/09 07:44:11;;;;;;;32.30;14.00;;;;;;;1.10;100.00;100348.03;5035235;28;20274;-72
2022/12/09 07:46:47;;;;;;;36.83;16.92;;;;;;;1.05;100.00;100342.34;5036717;28;20221;-72
2022/12/09 07:49:17;;;;;;;36.90;14.88;;;;;;;1.23;100.00;100348.47;5035264;28;20184;-72
2022/12/09 07:51:49;;;;;;;38.28;15.60;;;;;;;1.43;100.00;100348.25;5031922;28;20675;-72
2022/12/09 07:54:22;;;;;;;28.45;14.50;;;;;;;1.39;100.00;100349.56;5018904;28;20179;-72
2022/12/09 07:56:55;;;;;;;34.10;15.60;;;;;;;1.33;100.00;100351.03;5034974;28;20273;-72
2022/12/09 07:59:28;;;;;;;47.03;19.33;;;;;;;1.18;100.00;100344.59;5051324;28;20213;-72
2022/12/09 08:02:03;;;;;;;28.23;14.02;;;;;;;1.29;100.00;100345.19;5034962;28;20228;-72
2022/12/09 08:04:37;;;;;;;40.83;15.15;;;;;;;1.24;100.00;100352.81;5034910;28;20212;-72
2022/12/09 08:07:08;;;;;;;29.90;17.38;;;;;;;1.40;100.00;100348.59;5034882;28;20252;-72
2022/12/09 08:09:43;;;;;;;30.00;15.95;;;;;;;1.35;100.00;100354.38;5035982;28;20198;-71
2022/12/09 08:12:16;;;;;;;28.50;14.40;;;;;;;1.47;100.00;100349.63;5035508;28;20229;-72
2022/12/09 08:14:46;;;;;;;30.00;12.82;;;;;;;1.31;100.00;100355.66;5046764;28;20263;-71
2022/12/09 08:17:23;;;;;;;51.03;17.67;;;;;;;1.36;100.00;100352.53;5036293;28;20221;-72
2022/12/09 08:19:55;;;;;;;36.42;18.20;;;;;;;1.43;100.00;100343.75;5035845;28;20201;-73
2022/12/09 08:22:27;;;;;;;33.50;17.98;;;;;;;1.51;100.00;100350.97;5036135;28;20308;-72
2022/12/09 08:24:58;;;;;;;29.90;16.08;;;;;;;1.55;100.00;100352.34;5052488;28;20194;-72
2022/12/09 08:27:32;;;;;;;37.13;16.75;;;;;;;1.57;100.00;100350.34;5036048;28;20728;-71
2022/12/09 08:30:05;;;;;;;36.22;17.48;;;;;;;1.54;100.00;100345.34;5050872;28;20235;-72
2022/12/09 08:32:41;;;;;;;37.22;16.73;;;;;;;1.68;100.00;100347.41;5035074;28;20197;-71
2022/12/09 08:35:15;;;;;;;36.65;18.58;;;;;;;1.62;100.00;100342.72;5035138;28;20201;-70
2022/12/09 08:37:47;;;;;;;41.58;17.98;;;;;;;1.44;100.00;100344.59;5033534;28;20220;-72
2022/12/09 08:40:19;;;;;;;36.33;16.45;;;;;;;1.57;100.00;100339.69;5049775;28;20709;-72
2022/12/09 08:42:56;;;;;;;32.70;15.15;;;;;;;1.50;100.00;100346.66;5015076;28;20182;-72
2022/12/09 08:45:27;;;;;;;40.28;17.90;;;;;;;1.52;100.00;100357.97;5028192;28;20199;-72
2022/12/09 08:48:00;;;;;;;44.05;18.50;;;;;;;1.54;100.00;100361.34;5049837;28;20235;-71
2022/12/09 08:50:31;;;;;;;48.88;22.20;;;;;;;1.43;100.00;100362.44;5033330;28;20227;-72
2022/12/09 08:53:02;;;;;;;43.33;19.77;;;;;;;1.40;100.00;100362.75;5036862;28;20240;-72
2022/12/09 08:55:37;;;;;;;40.47;19.13;;;;;;;1.42;100.00;100357.25;5033504;28;20579;-72
2022/12/09 08:58:10;;;;;;;49.38;18.75;;;;;;;1.45;100.00;100354.28;5033414;28;20380;-71
2022/12/09 09:00:46;;;;;;;47.28;20.90;;;;;;;1.47;100.00;100360.28;5033718;28;20708;-74
2022/12/09 09:03:19;;;;;;;45.85;19.00;;;;;;;1.47;100.00;100360.28;5034631;28;20189;-73
2022/12/09 09:05:52;;;;;;;44.38;21.75;;;;;;;1.46;100.00;100369.25;5033435;28;20661;-72
2022/12/09 09:08:22;;;;;;;43.17;21.60;;;;;;;1.50;100.00;100365.31;5050069;28;20200;-73
2022/12/09 09:10:58;;;;;;;40.53;23.17;;;;;;;1.49;100.00;100361.81;5050088;28;20292;-72
2022/12/09 09:13:33;;;;;;;43.50;18.17;;;;;;;1.66;100.00;100360.06;5033118;28;20193;-71
2022/12/09 09:16:04;;;;;;;41.50;18.40;;;;;;;1.62;100.00;100358.72;5033932;28;20264;-73
2022/12/09 09:18:39;;;;;;;49.85;20.33;;;;;;;1.63;100.00;100360.41;5172936;22;20235;-71
2022/12/09 09:21:18;;;;;;;43.92;23.25;;;;;;;1.77;100.00;100370.47;5074452;28;20294;-71
2022/12/09 09:23:48;;;;;;;42.83;17.63;;;;;;;1.80;100.00;100372.81;5077891;28;20190;-70
2022/12/09 09:26:20;;;;;;;40.22;18.98;;;;;;;1.90;100.00;100362.03;5080680;28;20215;-71
2022/12/09 09:28:49;;;;;;;28.73;18.42;;;;;;;1.91;100.00;100369.03;5110396;28;20211;-71
2022/12/09 09:31:20;;;;;;;36.53;19.70;;;;;;;1.96;100.00;100370.25;5095086;28;20195;-72
2022/12/09 09:33:51;;;;;;;39.35;18.65;;;;;;;2.35;99.03;100364.38;5087485;28;20195;-71
2022/12/09 09:36:23;;;;;;;34.10;17.65;;;;;;;2.17;98.90;100365.34;5092508;28;20226;-72
2022/12/09 09:38:54;;;;;;;30.00;17.25;;;;;;;2.33;99.30;100371.72;5086926;28;20591;-71
2022/12/09 09:41:42;;;;;;;31.58;17.08;;;;;;;2.32;98.46;100359.38;5093624;28;20440;-71
2022/12/09 09:44:19;;;;;;;33.45;16.73;;;;;;;2.16;98.04;100363.66;5094189;28;20211;-71
2022/12/09 09:46:51;;;;;;;31.75;17.55;;;;;;;2.08;98.64;100362.81;5088746;28;20256;-71
2022/12/09 09:49:30;;;;;;;33.47;18.27;;;;;;;2.33;97.88;100358.34;5098016;28;20191;-72
2022/12/09 09:52:06;;;;;;;29.08;15.50;;;;;;;2.45;97.60;100362.41;5094832;28;20201;-72
2022/12/09 09:54:35;;;;;;;27.05;15.57;;;;;;;2.44;96.05;100366.09;5093625;28;20182;-72
2022/12/09 09:57:12;;;;;;;26.73;14.23;;;;;;;2.32;96.73;100362.88;5089782;28;20271;-72
2022/12/09 10:00:06;;;;;;;39.85;18.33;;;;;;;2.48;96.45;100367.41;5086083;28;20240;-72
2022/12/09 10:02:57;;;;;;;34.30;16.88;;;;;;;2.62;94.48;100366.78;5103947;28;20277;-71
2022/12/09 10:05:32;;;;;;;30.67;15.13;;;;;;;2.59;95.79;100361.78;5099320;28;20194;-72
2022/12/09 10:08:21;;;;;;;19.63;14.23;;;;;;;2.51;95.92;100373.28;5113938;28;20301;-71
2022/12/09 10:10:59;;;;;;;23.77;13.30;;;;;;;2.47;95.72;100363.91;5081281;28;20187;-70
2022/12/09 10:13:43;;;;;;;24.20;12.65;;;;;;;2.28;96.64;100360.69;5072858;28;20260;-71
2022/12/09 10:16:17;;;;;;;30.20;16.25;;;;;;;2.28;97.07;100355.34;5093664;28;20203;-71
2022/12/09 10:19:02;;;;;;;24.67;14.45;;;;;;;2.26;96.73;100354.69;5101452;28;20253;-73
2022/12/09 10:21:43;;;;;;;23.33;13.68;;;;;;;2.32;96.73;100351.38;5106371;28;20199;-71
2022/12/09 10:24:23;;;;;;;25.35;15.50;;;;;;;2.46;96.22;100353.41;5083048;28;20686;-70
2022/12/09 10:27:01;;;;;;;24.10;13.15;;;;;;;2.43;95.82;100351.06;5084632;28;20317;-73
2022/12/09 10:29:49;;;;;;;34.20;14.30;;;;;;;2.31;96.35;100349.69;5094484;28;20195;-76
2022/12/09 10:32:21;;;;;;;26.42;15.23;;;;;;;2.30;96.82;100345.34;5084646;28;20656;-70
2022/12/09 10:34:50;;;;;;;29.17;16.70;;;;;;;2.45;96.15;100343.72;5073049;28;20183;-72
2022/12/09 10:37:26;;;;;;;28.40;15.20;;;;;;;2.39;95.45;100342.53;5086624;28;20293;-74
2022/12/09 10:40:04;;;;;;;32.42;15.63;;;;;;;2.28;95.51;100342.00;5073405;28;20176;-75
2022/12/09 10:45:30;;;;;;;25.17;13.55;;;;;;;2.25;94.95;100340.50;5094041;28;20207;-74
2022/12/09 10:48:28;;;;;;;32.00;18.20;;;;;;;2.07;95.13;100335.28;5090746;28;20211;-74
2022/12/09 10:51:04;;;;;;;33.50;16.50;;;;;;;2.07;95.71;100343.28;5109815;28;20179;-74
2022/12/09 10:53:36;;;;;;;30.52;14.07;;;;;;;2.12;96.43;100335.63;5093295;28;20252;-73
2022/12/09 10:56:07;;;;;;;30.40;16.33;;;;;;;2.07;95.58;100331.75;5092952;28;20608;-74
2022/12/09 10:58:36;;;;;;;41.80;18.33;;;;;;;1.82;96.73;100338.81;5092894;28;20221;-73
2022/12/09 11:01:09;;;;;;;32.85;18.35;;;;;;;1.80;97.23;100330.13;5100140;28;20210;-74
2022/12/09 11:03:52;;;;;;;34.85;15.98;;;;;;;2.00;97.35;100326.22;5072481;28;20691;-73
2022/12/09 11:06:25;;;;;;;32.10;18.33;;;;;;;2.05;96.35;100323.91;5093349;28;20181;-74
2022/12/09 11:09:01;;;;;;;34.08;18.05;;;;;;;1.92;96.33;100333.38;5109657;28;20210;-73
2022/12/09 11:11:44;;;;;;;42.33;19.67;;;;;;;1.82;97.37;100321.97;5101345;28;20196;-73
2022/12/09 11:14:25;;;;;;;41.05;16.52;;;;;;;1.94;97.67;100326.84;5090102;28;20670;-73
2022/12/09 11:17:13;;;;;;;37.42;19.75;;;;;;;1.93;96.86;100319.88;5077821;28;20627;-73
2022/12/09 11:19:47;;;;;;;31.02;16.73;;;;;;;2.04;96.55;100327.56;5093450;28;20210;-75
2022/12/09 11:22:37;;;;;;;31.98;16.60;;;;;;;2.17;97.01;100330.63;5090517;28;20273;-73
2022/12/09 11:25:32;;;;;;;27.95;17.55;;;;;;;2.36;94.30;100323.34;5095587;28;20191;-73
2022/12/09 11:28:07;;;;;;;28.10;18.10;;;;;;;2.29;94.29;100333.00;5097658;28;20222;-72
2022/12/09 11:30:50;;;;;;;42.03;16.83;;;;;;;2.35;93.30;100319.00;5103671;28;20202;-74
2022/12/09 11:33:50;;;;;;;20.02;14.23;;;;;;;2.47;91.29;100309.69;5092494;28;20199;-73
2022/12/09 11:36:28;;;;;;;29.40;14.88;;;;;;;2.21;91.87;100311.63;5097029;28;20202;-74
2022/12/09 11:39:22;;;;;;;37.58;18.98;;;;;;;2.25;92.25;100312.97;5095571;28;20293;-74
2022/12/09 11:42:16;;;;;;;34.08;16.92;;;;;;;2.13;92.76;100315.13;5077169;28;20579;-72
2022/12/09 11:44:58;;;;;;;25.83;14.18;;;;;;;2.03;93.13;100304.53;5080946;28;20222;-74
2022/12/09 11:47:32;;;;;;;31.02;15.77;;;;;;;2.06;93.37;100309.56;5075887;28;20220;-74
2022/12/09 11:50:30;;;;;;;38.65;19.23;;;;;;;2.25;93.26;100302.28;5094523;28;20584;-75
2022/12/09 11:53:24;;;;;;;36.15;18.40;;;;;;;2.30;92.88;100290.13;5096824;28;20195;-73
2022/12/09 11:56:02;;;;;;;43.28;24.08;;;;;;;2.06;93.28;100296.22;5088974;28;20199;-74
2022/12/09 11:58:44;;;;;;;34.65;19.10;;;;;;;1.96;93.28;100303.53;5096562;28;20199;-74
2022/12/09 12:01:24;;;;;;;35.75;20.73;;;;;;;1.77;93.36;100302.94;5095497;28;20286;-74